Port Hardy, British Columbia

06:42 PM PST ar Rhagfyr 13, 2018 (GMT -0800)
Port Hardy | | Change Station

Elev 72 ft 50.68 °N, 127.37 °W | Updated 31 minutes ago

Glaw
Glaw
43 °F
Feels Like 36 °F
N
14
Gwynt Cyfnewidiol Gwynt from Dwyrain

Heddiw
High -- | Low -- °F
--% Chance of Precip.
Yesterday
High -- | Low -- °F
Precip. -- mod
Gwasgedd 29.55 mod
Gwelededd 5.0 Milltiroedd
Clouds Few 700 ft
Cymylog 1000 ft
Oerfel Gwynt 36 °F
Gwlithbwynt 41 °F
Lleithder 93%
Rainfall 0.00 mod
Snow Depth Not available.
8:23 AM 4:24 PM
Waxing Crescent, 37% visible
SPECI CYZT 140211Z 08012KT 5SM RA BR FEW007 OVC010 06/05 A2954 RMK SF1SC7 CIG RAG SLP005
Gwasgedd 29.55 mod
Gwelededd 5.0 Milltiroedd
Clouds Few 700 ft
Cymylog 1000 ft
Oerfel Gwynt 36 °F
Gwlithbwynt 41 °F
Lleithder 93%
Rainfall 0.00 mod
Snow Depth Not available.
8:23 AM 4:24 PM
Waxing Crescent, 37% visible
SPECI CYZT 140211Z 08012KT 5SM RA BR FEW007 OVC010 06/05 A2954 RMK SF1SC7 CIG RAG SLP005

Get Severe Weather Alerts

Thanks for signing up!

Be on the lookout for a verification email in your inbox.

You'll start receiving the daily forecast at 6 AM.

×

10-Day Weather Forecast

Almanac

Astronomy

Dec. 13, 2018 Rise Set
Actual Time
Civil Twilight
Nautical Twilight
Astronomical Twilight
Moon
Length Of Visible Light
Length of Day
Tomorrow will be .
, % of the Moon is Illuminated

Today's Extremes

Country Highs Country Lows

Community

WunderPhotos

Category 6

Welcome to Category 6. This is the collective home for Weather Underground's featured writeups by Dr. Jeff Masters (right), Bob Henson (left), Chris Burt, and other regular contributors.

Nearby

Air Quality

  Air Quality AQ Index Pollutant
Not available.

Snow Depth

Station Depth Elevation

Earthquake Activity

City Distance Mag. Time & Date
Minimum magnitude displayed is 2.5.

Coastal Water Temperatures

Lle Tymheredd

Stations

Nearby Weather Stations

Station Location Temp Oerfel Gwynt Gwlithbwynt Lleithder Gwynt Precip. Elev Diweddarwyd Type
                   

Watches & Warnings

There are currently no watches in effect.